sensor_id;sensor_type;location;lat;lon;timestamp;P1;durP1;ratioP1;P2;durP2;ratioP2
16665;SDS011;8446;50.998;6.250;2023-11-19T00:01:08;2.53;;;1.07;;
16665;SDS011;8446;50.998;6.250;2023-11-19T00:03:35;1.53;;;1.10;;
16665;SDS011;8446;50.998;6.250;2023-11-19T00:06:03;1.43;;;1.03;;
16665;SDS011;8446;50.998;6.250;2023-11-19T00:08:30;0.80;;;0.80;;
16665;SDS011;8446;50.998;6.250;2023-11-19T00:10:57;0.93;;;0.80;;
16665;SDS011;8446;50.998;6.250;2023-11-19T00:13:24;2.40;;;0.90;;
16665;SDS011;8446;50.998;6.250;2023-11-19T00:15:51;1.83;;;0.80;;
16665;SDS011;8446;50.998;6.250;2023-11-19T00:18:17;1.03;;;0.90;;
16665;SDS011;8446;50.998;6.250;2023-11-19T00:20:44;1.07;;;0.87;;
16665;SDS011;8446;50.998;6.250;2023-11-19T00:23:12;0.73;;;0.73;;
16665;SDS011;8446;50.998;6.250;2023-11-19T00:25:39;2.20;;;0.97;;
16665;SDS011;8446;50.998;6.250;2023-11-19T00:28:06;0.90;;;0.90;;
16665;SDS011;8446;50.998;6.250;2023-11-19T00:30:33;1.03;;;0.97;;
16665;SDS011;8446;50.998;6.250;2023-11-19T00:32:59;1.10;;;0.90;;
16665;SDS011;8446;50.998;6.250;2023-11-19T00:35:26;1.10;;;0.87;;
16665;SDS011;8446;50.998;6.250;2023-11-19T00:37:53;1.67;;;0.90;;
16665;SDS011;8446;50.998;6.250;2023-11-19T00:40:21;0.90;;;0.80;;
16665;SDS011;8446;50.998;6.250;2023-11-19T00:42:48;1.47;;;1.00;;
16665;SDS011;8446;50.998;6.250;2023-11-19T00:45:15;1.47;;;1.00;;
16665;SDS011;8446;50.998;6.250;2023-11-19T00:47:42;2.30;;;1.00;;
16665;SDS011;8446;50.998;6.250;2023-11-19T00:50:09;1.97;;;1.00;;
16665;SDS011;8446;50.998;6.250;2023-11-19T00:52:37;1.23;;;1.13;;
16665;SDS011;8446;50.998;6.250;2023-11-19T00:55:05;1.57;;;0.97;;
16665;SDS011;8446;50.998;6.250;2023-11-19T00:57:34;1.07;;;0.97;;
16665;SDS011;8446;50.998;6.250;2023-11-19T01:00:01;1.20;;;1.10;;
16665;SDS011;8446;50.998;6.250;2023-11-19T01:02:31;1.27;;;1.00;;
16665;SDS011;8446;50.998;6.250;2023-11-19T01:04:59;2.60;;;1.13;;
16665;SDS011;8446;50.998;6.250;2023-11-19T01:07:26;1.40;;;1.30;;
16665;SDS011;8446;50.998;6.250;2023-11-19T01:09:53;1.47;;;1.20;;
16665;SDS011;8446;50.998;6.250;2023-11-19T01:12:19;7.40;;;1.73;;
16665;SDS011;8446;50.998;6.250;2023-11-19T01:14:51;4.93;;;1.70;;
16665;SDS011;8446;50.998;6.250;2023-11-19T01:17:17;1.53;;;1.33;;
16665;SDS011;8446;50.998;6.250;2023-11-19T01:19:44;3.37;;;1.43;;
16665;SDS011;8446;50.998;6.250;2023-11-19T01:22:11;2.80;;;1.40;;
16665;SDS011;8446;50.998;6.250;2023-11-19T01:24:38;7.00;;;2.00;;
16665;SDS011;8446;50.998;6.250;2023-11-19T01:27:04;3.57;;;1.93;;
16665;SDS011;8446;50.998;6.250;2023-11-19T01:29:31;7.83;;;1.90;;
16665;SDS011;8446;50.998;6.250;2023-11-19T01:31:59;1.80;;;1.70;;
16665;SDS011;8446;50.998;6.250;2023-11-19T01:34:26;6.40;;;2.37;;
16665;SDS011;8446;50.998;6.250;2023-11-19T01:36:53;6.20;;;2.00;;
16665;SDS011;8446;50.998;6.250;2023-11-19T01:39:20;6.97;;;2.60;;
16665;SDS011;8446;50.998;6.250;2023-11-19T01:41:47;2.83;;;1.80;;
16665;SDS011;8446;50.998;6.250;2023-11-19T01:44:14;3.20;;;2.13;;
16665;SDS011;8446;50.998;6.250;2023-11-19T01:46:41;6.80;;;2.33;;
16665;SDS011;8446;50.998;6.250;2023-11-19T01:49:11;6.23;;;2.53;;
16665;SDS011;8446;50.998;6.250;2023-11-19T01:51:40;3.90;;;2.20;;
16665;SDS011;8446;50.998;6.250;2023-11-19T01:54:07;5.47;;;2.03;;
16665;SDS011;8446;50.998;6.250;2023-11-19T01:56:34;11.97;;;2.40;;
16665;SDS011;8446;50.998;6.250;2023-11-19T01:59:01;15.33;;;2.33;;
16665;SDS011;8446;50.998;6.250;2023-11-19T02:01:29;5.70;;;2.50;;
16665;SDS011;8446;50.998;6.250;2023-11-19T02:03:57;5.83;;;2.30;;
16665;SDS011;8446;50.998;6.250;2023-11-19T02:06:26;7.20;;;2.70;;
16665;SDS011;8446;50.998;6.250;2023-11-19T02:08:53;8.33;;;2.77;;
16665;SDS011;8446;50.998;6.250;2023-11-19T02:11:20;6.57;;;1.90;;
16665;SDS011;8446;50.998;6.250;2023-11-19T02:13:47;6.90;;;2.03;;
16665;SDS011;8446;50.998;6.250;2023-11-19T02:16:14;7.63;;;2.40;;
16665;SDS011;8446;50.998;6.250;2023-11-19T02:18:41;7.17;;;2.30;;
16665;SDS011;8446;50.998;6.250;2023-11-19T02:21:08;4.90;;;2.50;;
16665;SDS011;8446;50.998;6.250;2023-11-19T02:23:37;10.60;;;2.57;;
16665;SDS011;8446;50.998;6.250;2023-11-19T02:26:07;5.60;;;2.17;;
16665;SDS011;8446;50.998;6.250;2023-11-19T02:28:42;6.60;;;3.00;;
16665;SDS011;8446;50.998;6.250;2023-11-19T02:31:09;10.27;;;2.10;;
16665;SDS011;8446;50.998;6.250;2023-11-19T02:33:36;10.13;;;2.90;;
16665;SDS011;8446;50.998;6.250;2023-11-19T02:36:04;6.77;;;2.07;;
16665;SDS011;8446;50.998;6.250;2023-11-19T02:38:32;9.03;;;2.43;;
16665;SDS011;8446;50.998;6.250;2023-11-19T02:40:59;9.40;;;2.37;;
16665;SDS011;8446;50.998;6.250;2023-11-19T02:43:30;15.43;;;2.47;;
16665;SDS011;8446;50.998;6.250;2023-11-19T02:45:59;7.60;;;2.40;;
16665;SDS011;8446;50.998;6.250;2023-11-19T02:48:26;5.13;;;2.00;;
16665;SDS011;8446;50.998;6.250;2023-11-19T02:50:53;8.80;;;2.50;;
16665;SDS011;8446;50.998;6.250;2023-11-19T02:53:23;8.47;;;2.50;;
16665;SDS011;8446;50.998;6.250;2023-11-19T02:55:52;7.97;;;2.20;;
16665;SDS011;8446;50.998;6.250;2023-11-19T02:58:26;16.60;;;3.50;;
16665;SDS011;8446;50.998;6.250;2023-11-19T03:00:53;4.87;;;1.50;;
16665;SDS011;8446;50.998;6.250;2023-11-19T03:03:23;8.80;;;2.23;;
16665;SDS011;8446;50.998;6.250;2023-11-19T03:05:55;20.40;;;2.60;;
16665;SDS011;8446;50.998;6.250;2023-11-19T03:08:22;6.00;;;1.63;;
16665;SDS011;8446;50.998;6.250;2023-11-19T03:10:49;7.53;;;2.00;;
16665;SDS011;8446;50.998;6.250;2023-11-19T03:13:16;13.90;;;3.23;;
16665;SDS011;8446;50.998;6.250;2023-11-19T03:15:43;7.93;;;2.73;;
16665;SDS011;8446;50.998;6.250;2023-11-19T03:18:10;10.20;;;2.17;;
16665;SDS011;8446;50.998;6.250;2023-11-19T03:20:38;6.63;;;2.20;;
16665;SDS011;8446;50.998;6.250;2023-11-19T03:23:05;12.73;;;2.60;;
16665;SDS011;8446;50.998;6.250;2023-11-19T03:25:31;9.63;;;2.50;;
16665;SDS011;8446;50.998;6.250;2023-11-19T03:27:59;20.70;;;2.90;;
16665;SDS011;8446;50.998;6.250;2023-11-19T03:30:27;6.60;;;2.60;;
16665;SDS011;8446;50.998;6.250;2023-11-19T03:32:54;11.00;;;2.87;;
16665;SDS011;8446;50.998;6.250;2023-11-19T03:35:21;19.13;;;3.10;;
16665;SDS011;8446;50.998;6.250;2023-11-19T03:37:49;8.57;;;2.67;;
16665;SDS011;8446;50.998;6.250;2023-11-19T03:40:17;4.43;;;1.80;;
16665;SDS011;8446;50.998;6.250;2023-11-19T03:42:45;15.83;;;2.30;;
16665;SDS011;8446;50.998;6.250;2023-11-19T03:45:12;12.57;;;2.70;;
16665;SDS011;8446;50.998;6.250;2023-11-19T03:47:39;16.40;;;2.50;;
16665;SDS011;8446;50.998;6.250;2023-11-19T03:50:06;13.33;;;2.57;;
16665;SDS011;8446;50.998;6.250;2023-11-19T03:52:34;21.03;;;2.90;;
16665;SDS011;8446;50.998;6.250;2023-11-19T03:55:02;9.07;;;2.20;;
16665;SDS011;8446;50.998;6.250;2023-11-19T03:57:30;13.20;;;2.03;;
16665;SDS011;8446;50.998;6.250;2023-11-19T03:59:56;23.87;;;4.23;;
16665;SDS011;8446;50.998;6.250;2023-11-19T04:02:24;20.13;;;4.03;;
16665;SDS011;8446;50.998;6.250;2023-11-19T04:04:53;24.77;;;2.50;;
16665;SDS011;8446;50.998;6.250;2023-11-19T04:07:21;12.13;;;3.10;;
16665;SDS011;8446;50.998;6.250;2023-11-19T04:09:47;8.27;;;2.17;;
16665;SDS011;8446;50.998;6.250;2023-11-19T04:12:16;17.33;;;2.70;;
16665;SDS011;8446;50.998;6.250;2023-11-19T04:14:42;16.30;;;2.70;;
16665;SDS011;8446;50.998;6.250;2023-11-19T04:17:10;16.23;;;3.03;;
16665;SDS011;8446;50.998;6.250;2023-11-19T04:19:36;14.60;;;3.23;;
16665;SDS011;8446;50.998;6.250;2023-11-19T04:22:06;21.07;;;3.43;;
16665;SDS011;8446;50.998;6.250;2023-11-19T04:24:33;25.17;;;3.97;;
16665;SDS011;8446;50.998;6.250;2023-11-19T04:27:00;21.33;;;3.40;;
16665;SDS011;8446;50.998;6.250;2023-11-19T04:29:28;19.20;;;3.00;;
16665;SDS011;8446;50.998;6.250;2023-11-19T04:31:56;17.27;;;2.90;;
16665;SDS011;8446;50.998;6.250;2023-11-19T04:34:22;11.40;;;3.10;;
16665;SDS011;8446;50.998;6.250;2023-11-19T04:36:49;12.07;;;3.03;;
16665;SDS011;8446;50.998;6.250;2023-11-19T04:39:16;14.53;;;3.40;;
16665;SDS011;8446;50.998;6.250;2023-11-19T04:41:46;14.73;;;3.10;;
16665;SDS011;8446;50.998;6.250;2023-11-19T04:44:14;12.90;;;2.37;;
16665;SDS011;8446;50.998;6.250;2023-11-19T04:46:43;8.00;;;3.00;;
16665;SDS011;8446;50.998;6.250;2023-11-19T04:49:10;7.83;;;2.50;;
16665;SDS011;8446;50.998;6.250;2023-11-19T04:51:38;12.47;;;2.87;;
16665;SDS011;8446;50.998;6.250;2023-11-19T04:54:06;6.47;;;2.67;;
16665;SDS011;8446;50.998;6.250;2023-11-19T04:56:34;12.63;;;1.93;;
16665;SDS011;8446;50.998;6.250;2023-11-19T04:59:01;8.50;;;2.77;;
16665;SDS011;8446;50.998;6.250;2023-11-19T05:01:28;10.00;;;2.40;;
16665;SDS011;8446;50.998;6.250;2023-11-19T05:03:56;11.33;;;2.60;;
16665;SDS011;8446;50.998;6.250;2023-11-19T05:06:25;13.63;;;3.10;;
16665;SDS011;8446;50.998;6.250;2023-11-19T05:08:54;8.80;;;2.60;;
16665;SDS011;8446;50.998;6.250;2023-11-19T05:11:20;14.63;;;1.73;;
16665;SDS011;8446;50.998;6.250;2023-11-19T05:13:47;16.23;;;3.00;;
16665;SDS011;8446;50.998;6.250;2023-11-19T05:16:15;26.43;;;2.93;;
16665;SDS011;8446;50.998;6.250;2023-11-19T05:18:42;21.50;;;2.83;;
16665;SDS011;8446;50.998;6.250;2023-11-19T05:21:10;20.67;;;2.30;;
16665;SDS011;8446;50.998;6.250;2023-11-19T05:23:37;19.80;;;2.80;;
16665;SDS011;8446;50.998;6.250;2023-11-19T05:26:04;14.37;;;2.60;;
16665;SDS011;8446;50.998;6.250;2023-11-19T05:28:31;9.67;;;2.90;;
16665;SDS011;8446;50.998;6.250;2023-11-19T05:30:58;14.70;;;2.50;;
16665;SDS011;8446;50.998;6.250;2023-11-19T05:33:25;33.90;;;5.63;;
16665;SDS011;8446;50.998;6.250;2023-11-19T05:35:52;16.60;;;2.33;;
16665;SDS011;8446;50.998;6.250;2023-11-19T05:38:20;28.73;;;3.80;;
16665;SDS011;8446;50.998;6.250;2023-11-19T05:40:47;17.47;;;2.77;;
16665;SDS011;8446;50.998;6.250;2023-11-19T05:43:14;29.80;;;4.97;;
16665;SDS011;8446;50.998;6.250;2023-11-19T05:45:42;22.20;;;3.47;;
16665;SDS011;8446;50.998;6.250;2023-11-19T05:48:09;17.20;;;2.87;;
16665;SDS011;8446;50.998;6.250;2023-11-19T05:50:35;15.30;;;2.63;;
16665;SDS011;8446;50.998;6.250;2023-11-19T05:53:02;14.47;;;3.00;;
16665;SDS011;8446;50.998;6.250;2023-11-19T05:55:33;8.57;;;2.60;;
16665;SDS011;8446;50.998;6.250;2023-11-19T05:58:00;17.70;;;3.33;;
16665;SDS011;8446;50.998;6.250;2023-11-19T06:00:28;8.00;;;1.97;;
16665;SDS011;8446;50.998;6.250;2023-11-19T06:02:55;15.80;;;2.40;;
16665;SDS011;8446;50.998;6.250;2023-11-19T06:05:22;19.10;;;3.47;;
16665;SDS011;8446;50.998;6.250;2023-11-19T06:07:49;18.03;;;3.50;;
16665;SDS011;8446;50.998;6.250;2023-11-19T06:10:16;19.57;;;3.73;;
16665;SDS011;8446;50.998;6.250;2023-11-19T06:12:45;27.13;;;4.93;;
16665;SDS011;8446;50.998;6.250;2023-11-19T06:15:12;28.73;;;3.27;;
16665;SDS011;8446;50.998;6.250;2023-11-19T06:17:39;20.93;;;3.87;;
16665;SDS011;8446;50.998;6.250;2023-11-19T06:20:06;17.67;;;3.17;;
16665;SDS011;8446;50.998;6.250;2023-11-19T06:22:34;26.27;;;4.07;;
16665;SDS011;8446;50.998;6.250;2023-11-19T06:25:01;15.53;;;3.60;;
16665;SDS011;8446;50.998;6.250;2023-11-19T06:27:32;17.03;;;3.13;;
16665;SDS011;8446;50.998;6.250;2023-11-19T06:30:00;17.67;;;3.37;;
16665;SDS011;8446;50.998;6.250;2023-11-19T06:32:27;10.90;;;2.60;;
16665;SDS011;8446;50.998;6.250;2023-11-19T06:34:54;23.87;;;3.57;;
16665;SDS011;8446;50.998;6.250;2023-11-19T06:37:21;15.53;;;2.80;;
16665;SDS011;8446;50.998;6.250;2023-11-19T06:39:48;11.63;;;3.10;;
16665;SDS011;8446;50.998;6.250;2023-11-19T06:42:15;17.77;;;3.10;;
16665;SDS011;8446;50.998;6.250;2023-11-19T06:44:42;17.50;;;3.43;;
16665;SDS011;8446;50.998;6.250;2023-11-19T06:47:10;22.87;;;3.20;;
16665;SDS011;8446;50.998;6.250;2023-11-19T06:49:37;20.30;;;3.53;;
16665;SDS011;8446;50.998;6.250;2023-11-19T06:52:04;18.63;;;7.10;;
16665;SDS011;8446;50.998;6.250;2023-11-19T06:54:31;17.40;;;2.33;;
16665;SDS011;8446;50.998;6.250;2023-11-19T06:56:58;24.87;;;3.73;;
16665;SDS011;8446;50.998;6.250;2023-11-19T06:59:24;12.20;;;2.23;;
16665;SDS011;8446;50.998;6.250;2023-11-19T07:01:51;12.80;;;3.20;;
16665;SDS011;8446;50.998;6.250;2023-11-19T07:04:20;19.57;;;3.23;;
16665;SDS011;8446;50.998;6.250;2023-11-19T07:06:46;22.50;;;3.50;;
16665;SDS011;8446;50.998;6.250;2023-11-19T07:09:14;20.13;;;3.60;;
16665;SDS011;8446;50.998;6.250;2023-11-19T07:11:41;10.90;;;2.80;;
16665;SDS011;8446;50.998;6.250;2023-11-19T07:14:09;25.87;;;3.17;;
16665;SDS011;8446;50.998;6.250;2023-11-19T07:16:36;25.67;;;3.63;;
16665;SDS011;8446;50.998;6.250;2023-11-19T07:19:04;39.80;;;4.87;;
16665;SDS011;8446;50.998;6.250;2023-11-19T07:21:32;24.70;;;3.93;;
16665;SDS011;8446;50.998;6.250;2023-11-19T07:23:59;20.00;;;2.50;;
16665;SDS011;8446;50.998;6.250;2023-11-19T07:26:26;26.10;;;3.70;;
16665;SDS011;8446;50.998;6.250;2023-11-19T07:28:53;26.17;;;3.60;;
16665;SDS011;8446;50.998;6.250;2023-11-19T07:31:20;10.90;;;2.83;;
16665;SDS011;8446;50.998;6.250;2023-11-19T07:33:48;20.10;;;3.20;;
16665;SDS011;8446;50.998;6.250;2023-11-19T07:36:15;14.53;;;2.20;;
16665;SDS011;8446;50.998;6.250;2023-11-19T07:38:45;27.00;;;3.00;;
16665;SDS011;8446;50.998;6.250;2023-11-19T07:41:12;17.10;;;3.07;;
16665;SDS011;8446;50.998;6.250;2023-11-19T07:43:39;22.70;;;3.20;;
16665;SDS011;8446;50.998;6.250;2023-11-19T07:46:10;24.23;;;3.40;;
16665;SDS011;8446;50.998;6.250;2023-11-19T07:48:38;15.33;;;3.03;;
16665;SDS011;8446;50.998;6.250;2023-11-19T07:51:05;40.00;;;4.40;;
16665;SDS011;8446;50.998;6.250;2023-11-19T07:53:32;23.93;;;3.50;;
16665;SDS011;8446;50.998;6.250;2023-11-19T07:56:00;19.13;;;3.10;;
16665;SDS011;8446;50.998;6.250;2023-11-19T07:58:27;19.43;;;3.50;;
16665;SDS011;8446;50.998;6.250;2023-11-19T08:00:54;12.47;;;2.90;;
16665;SDS011;8446;50.998;6.250;2023-11-19T08:03:21;11.27;;;3.20;;
16665;SDS011;8446;50.998;6.250;2023-11-19T08:05:48;29.40;;;3.50;;
16665;SDS011;8446;50.998;6.250;2023-11-19T08:08:15;24.67;;;2.63;;
16665;SDS011;8446;50.998;6.250;2023-11-19T08:10:42;28.87;;;4.00;;
16665;SDS011;8446;50.998;6.250;2023-11-19T08:13:10;34.13;;;3.97;;
16665;SDS011;8446;50.998;6.250;2023-11-19T08:15:37;24.37;;;3.20;;
16665;SDS011;8446;50.998;6.250;2023-11-19T08:18:05;21.73;;;3.50;;
16665;SDS011;8446;50.998;6.250;2023-11-19T08:20:32;21.87;;;3.60;;
16665;SDS011;8446;50.998;6.250;2023-11-19T08:22:59;25.73;;;3.13;;
16665;SDS011;8446;50.998;6.250;2023-11-19T08:25:28;24.90;;;3.50;;
16665;SDS011;8446;50.998;6.250;2023-11-19T08:27:55;25.83;;;4.47;;
16665;SDS011;8446;50.998;6.250;2023-11-19T08:30:23;19.33;;;3.07;;
16665;SDS011;8446;50.998;6.250;2023-11-19T08:32:50;30.80;;;3.60;;
16665;SDS011;8446;50.998;6.250;2023-11-19T08:35:17;17.17;;;3.03;;
16665;SDS011;8446;50.998;6.250;2023-11-19T08:37:43;20.10;;;3.43;;
16665;SDS011;8446;50.998;6.250;2023-11-19T08:40:11;28.60;;;3.90;;
16665;SDS011;8446;50.998;6.250;2023-11-19T08:42:39;14.93;;;2.23;;
16665;SDS011;8446;50.998;6.250;2023-11-19T08:45:06;33.73;;;4.37;;
16665;SDS011;8446;50.998;6.250;2023-11-19T08:47:36;12.77;;;2.40;;
16665;SDS011;8446;50.998;6.250;2023-11-19T08:50:05;25.83;;;3.60;;
16665;SDS011;8446;50.998;6.250;2023-11-19T08:52:33;42.50;;;4.03;;
16665;SDS011;8446;50.998;6.250;2023-11-19T08:55:00;19.73;;;4.97;;
16665;SDS011;8446;50.998;6.250;2023-11-19T08:57:27;27.70;;;4.40;;
16665;SDS011;8446;50.998;6.250;2023-11-19T08:59:54;19.60;;;2.80;;
16665;SDS011;8446;50.998;6.250;2023-11-19T09:02:21;34.00;;;4.77;;
16665;SDS011;8446;50.998;6.250;2023-11-19T09:04:49;22.73;;;3.60;;
16665;SDS011;8446;50.998;6.250;2023-11-19T09:07:16;18.20;;;4.07;;
16665;SDS011;8446;50.998;6.250;2023-11-19T09:09:43;13.23;;;2.50;;
16665;SDS011;8446;50.998;6.250;2023-11-19T09:12:10;22.83;;;3.07;;
16665;SDS011;8446;50.998;6.250;2023-11-19T09:14:38;40.17;;;4.33;;
16665;SDS011;8446;50.998;6.250;2023-11-19T09:17:07;22.73;;;4.60;;
16665;SDS011;8446;50.998;6.250;2023-11-19T09:19:34;30.80;;;4.47;;
16665;SDS011;8446;50.998;6.250;2023-11-19T09:22:02;17.93;;;3.33;;
16665;SDS011;8446;50.998;6.250;2023-11-19T09:24:29;22.53;;;3.70;;
16665;SDS011;8446;50.998;6.250;2023-11-19T09:26:56;27.40;;;4.50;;
16665;SDS011;8446;50.998;6.250;2023-11-19T09:29:23;19.93;;;4.10;;
16665;SDS011;8446;50.998;6.250;2023-11-19T09:31:50;27.03;;;4.67;;
16665;SDS011;8446;50.998;6.250;2023-11-19T09:34:16;20.90;;;3.73;;
16665;SDS011;8446;50.998;6.250;2023-11-19T09:36:43;20.43;;;3.50;;
16665;SDS011;8446;50.998;6.250;2023-11-19T09:39:11;20.77;;;3.20;;
16665;SDS011;8446;50.998;6.250;2023-11-19T09:41:40;19.67;;;3.10;;
16665;SDS011;8446;50.998;6.250;2023-11-19T09:44:07;18.80;;;4.53;;
16665;SDS011;8446;50.998;6.250;2023-11-19T09:46:35;25.20;;;3.33;;
16665;SDS011;8446;50.998;6.250;2023-11-19T09:49:02;26.23;;;3.50;;
16665;SDS011;8446;50.998;6.250;2023-11-19T09:51:30;24.37;;;3.53;;
16665;SDS011;8446;50.998;6.250;2023-11-19T09:53:57;23.63;;;3.70;;
16665;SDS011;8446;50.998;6.250;2023-11-19T09:56:26;19.40;;;3.73;;
16665;SDS011;8446;50.998;6.250;2023-11-19T09:58:56;23.33;;;2.70;;
16665;SDS011;8446;50.998;6.250;2023-11-19T10:01:24;18.50;;;3.00;;
16665;SDS011;8446;50.998;6.250;2023-11-19T10:03:51;29.53;;;3.43;;
16665;SDS011;8446;50.998;6.250;2023-11-19T10:06:22;24.93;;;4.30;;
16665;SDS011;8446;50.998;6.250;2023-11-19T10:08:51;26.37;;;3.70;;
16665;SDS011;8446;50.998;6.250;2023-11-19T10:11:18;22.27;;;4.03;;
16665;SDS011;8446;50.998;6.250;2023-11-19T10:13:46;27.57;;;3.03;;
16665;SDS011;8446;50.998;6.250;2023-11-19T10:16:14;27.90;;;4.50;;
16665;SDS011;8446;50.998;6.250;2023-11-19T10:18:42;25.00;;;3.37;;
16665;SDS011;8446;50.998;6.250;2023-11-19T10:21:11;24.33;;;4.73;;
16665;SDS011;8446;50.998;6.250;2023-11-19T10:23:48;12.27;;;2.50;;
16665;SDS011;8446;50.998;6.250;2023-11-19T10:26:16;24.17;;;4.07;;
16665;SDS011;8446;50.998;6.250;2023-11-19T10:28:43;22.60;;;3.50;;
16665;SDS011;8446;50.998;6.250;2023-11-19T10:31:13;17.47;;;2.77;;
16665;SDS011;8446;50.998;6.250;2023-11-19T10:33:40;28.60;;;3.43;;
16665;SDS011;8446;50.998;6.250;2023-11-19T10:36:07;21.90;;;2.80;;
16665;SDS011;8446;50.998;6.250;2023-11-19T10:38:34;17.50;;;3.00;;
16665;SDS011;8446;50.998;6.250;2023-11-19T10:41:01;24.07;;;3.33;;
16665;SDS011;8446;50.998;6.250;2023-11-19T10:43:29;24.07;;;3.43;;
16665;SDS011;8446;50.998;6.250;2023-11-19T10:46:08;24.10;;;4.70;;
16665;SDS011;8446;50.998;6.250;2023-11-19T10:48:37;31.20;;;3.50;;
16665;SDS011;8446;50.998;6.250;2023-11-19T10:51:05;18.87;;;3.63;;
16665;SDS011;8446;50.998;6.250;2023-11-19T10:53:33;21.30;;;3.27;;
16665;SDS011;8446;50.998;6.250;2023-11-19T10:56:04;13.50;;;4.30;;
16665;SDS011;8446;50.998;6.250;2023-11-19T10:58:36;19.13;;;4.10;;
16665;SDS011;8446;50.998;6.250;2023-11-19T11:01:06;23.27;;;2.97;;
16665;SDS011;8446;50.998;6.250;2023-11-19T11:03:39;23.97;;;4.10;;
16665;SDS011;8446;50.998;6.250;2023-11-19T11:06:06;21.53;;;3.10;;
16665;SDS011;8446;50.998;6.250;2023-11-19T11:08:34;17.70;;;3.47;;
16665;SDS011;8446;50.998;6.250;2023-11-19T11:11:03;33.87;;;5.70;;
16665;SDS011;8446;50.998;6.250;2023-11-19T11:13:31;22.00;;;2.67;;
16665;SDS011;8446;50.998;6.250;2023-11-19T11:15:59;20.50;;;3.83;;
16665;SDS011;8446;50.998;6.250;2023-11-19T11:18:26;37.53;;;2.30;;
16665;SDS011;8446;50.998;6.250;2023-11-19T11:20:55;19.67;;;3.83;;
16665;SDS011;8446;50.998;6.250;2023-11-19T11:26:44;14.23;;;2.70;;
16665;SDS011;8446;50.998;6.250;2023-11-19T11:29:24;24.93;;;3.03;;
16665;SDS011;8446;50.998;6.250;2023-11-19T11:32:00;18.03;;;3.20;;
16665;SDS011;8446;50.998;6.250;2023-11-19T11:34:44;20.50;;;2.80;;
16665;SDS011;8446;50.998;6.250;2023-11-19T11:37:25;29.70;;;4.10;;
16665;SDS011;8446;50.998;6.250;2023-11-19T11:39:58;29.73;;;3.67;;
16665;SDS011;8446;50.998;6.250;2023-11-19T11:42:34;28.03;;;3.90;;
16665;SDS011;8446;50.998;6.250;2023-11-19T11:45:02;10.63;;;2.30;;
16665;SDS011;8446;50.998;6.250;2023-11-19T11:50:34;16.40;;;3.50;;
16665;SDS011;8446;50.998;6.250;2023-11-19T11:53:19;12.90;;;3.60;;
16665;SDS011;8446;50.998;6.250;2023-11-19T11:55:53;21.67;;;3.93;;
16665;SDS011;8446;50.998;6.250;2023-11-19T11:58:25;19.97;;;3.83;;
16665;SDS011;8446;50.998;6.250;2023-11-19T12:00:57;23.20;;;4.20;;
16665;SDS011;8446;50.998;6.250;2023-11-19T12:03:26;19.60;;;2.70;;
16665;SDS011;8446;50.998;6.250;2023-11-19T12:05:54;33.73;;;3.60;;
16665;SDS011;8446;50.998;6.250;2023-11-19T12:08:25;22.90;;;4.10;;
16665;SDS011;8446;50.998;6.250;2023-11-19T12:10:53;19.40;;;2.30;;
16665;SDS011;8446;50.998;6.250;2023-11-19T12:13:23;31.20;;;5.00;;
16665;SDS011;8446;50.998;6.250;2023-11-19T12:16:08;10.33;;;2.53;;
16665;SDS011;8446;50.998;6.250;2023-11-19T12:18:35;14.07;;;3.03;;
16665;SDS011;8446;50.998;6.250;2023-11-19T12:21:04;18.33;;;2.47;;
16665;SDS011;8446;50.998;6.250;2023-11-19T12:23:35;25.40;;;2.73;;
16665;SDS011;8446;50.998;6.250;2023-11-19T12:26:34;19.53;;;2.53;;
16665;SDS011;8446;50.998;6.250;2023-11-19T12:29:02;8.23;;;2.20;;
16665;SDS011;8446;50.998;6.250;2023-11-19T12:31:31;13.27;;;2.40;;
16665;SDS011;8446;50.998;6.250;2023-11-19T12:34:00;4.43;;;1.97;;
16665;SDS011;8446;50.998;6.250;2023-11-19T12:36:31;10.67;;;2.43;;
16665;SDS011;8446;50.998;6.250;2023-11-19T12:38:59;13.80;;;2.37;;
16665;SDS011;8446;50.998;6.250;2023-11-19T12:41:27;10.93;;;1.67;;
16665;SDS011;8446;50.998;6.250;2023-11-19T12:43:54;17.47;;;2.90;;
16665;SDS011;8446;50.998;6.250;2023-11-19T12:46:34;15.67;;;3.03;;
16665;SDS011;8446;50.998;6.250;2023-11-19T12:49:01;10.57;;;2.10;;
16665;SDS011;8446;50.998;6.250;2023-11-19T12:51:30;13.93;;;2.57;;
16665;SDS011;8446;50.998;6.250;2023-11-19T12:53:57;11.73;;;3.03;;
16665;SDS011;8446;50.998;6.250;2023-11-19T12:56:25;14.37;;;3.30;;
16665;SDS011;8446;50.998;6.250;2023-11-19T12:58:52;20.13;;;3.33;;
16665;SDS011;8446;50.998;6.250;2023-11-19T13:01:19;20.30;;;3.40;;
16665;SDS011;8446;50.998;6.250;2023-11-19T13:03:46;21.93;;;3.00;;
16665;SDS011;8446;50.998;6.250;2023-11-19T13:06:16;15.70;;;3.47;;
16665;SDS011;8446;50.998;6.250;2023-11-19T13:08:46;15.60;;;2.70;;
16665;SDS011;8446;50.998;6.250;2023-11-19T13:11:15;12.43;;;3.10;;
16665;SDS011;8446;50.998;6.250;2023-11-19T13:13:58;30.10;;;5.37;;
16665;SDS011;8446;50.998;6.250;2023-11-19T13:16:28;28.70;;;5.60;;
16665;SDS011;8446;50.998;6.250;2023-11-19T13:18:56;30.77;;;3.27;;
16665;SDS011;8446;50.998;6.250;2023-11-19T13:21:24;19.93;;;3.23;;
16665;SDS011;8446;50.998;6.250;2023-11-19T13:23:51;18.07;;;2.73;;
16665;SDS011;8446;50.998;6.250;2023-11-19T13:26:18;12.50;;;2.43;;
16665;SDS011;8446;50.998;6.250;2023-11-19T13:28:46;13.63;;;2.97;;
16665;SDS011;8446;50.998;6.250;2023-11-19T13:31:13;19.93;;;3.17;;
16665;SDS011;8446;50.998;6.250;2023-11-19T13:33:40;15.77;;;3.40;;
16665;SDS011;8446;50.998;6.250;2023-11-19T13:36:07;17.93;;;2.83;;
16665;SDS011;8446;50.998;6.250;2023-11-19T13:38:35;17.00;;;3.50;;
16665;SDS011;8446;50.998;6.250;2023-11-19T13:41:02;26.30;;;3.13;;
16665;SDS011;8446;50.998;6.250;2023-11-19T13:43:30;16.17;;;3.03;;
16665;SDS011;8446;50.998;6.250;2023-11-19T13:45:58;14.87;;;3.00;;
16665;SDS011;8446;50.998;6.250;2023-11-19T13:48:25;15.73;;;2.90;;
16665;SDS011;8446;50.998;6.250;2023-11-19T13:50:54;27.87;;;4.30;;
16665;SDS011;8446;50.998;6.250;2023-11-19T13:53:20;12.63;;;2.37;;
16665;SDS011;8446;50.998;6.250;2023-11-19T13:55:48;12.70;;;2.67;;
16665;SDS011;8446;50.998;6.250;2023-11-19T13:58:14;15.90;;;3.37;;
16665;SDS011;8446;50.998;6.250;2023-11-19T14:00:42;7.57;;;2.10;;
16665;SDS011;8446;50.998;6.250;2023-11-19T14:03:11;13.67;;;1.90;;
16665;SDS011;8446;50.998;6.250;2023-11-19T14:05:38;5.63;;;1.80;;
16665;SDS011;8446;50.998;6.250;2023-11-19T14:08:06;26.03;;;3.13;;
16665;SDS011;8446;50.998;6.250;2023-11-19T14:10:36;14.33;;;2.30;;
16665;SDS011;8446;50.998;6.250;2023-11-19T14:13:05;19.20;;;3.03;;
16665;SDS011;8446;50.998;6.250;2023-11-19T14:15:32;9.27;;;2.03;;
16665;SDS011;8446;50.998;6.250;2023-11-19T14:17:59;12.63;;;2.03;;
16665;SDS011;8446;50.998;6.250;2023-11-19T14:20:27;12.67;;;1.90;;
16665;SDS011;8446;50.998;6.250;2023-11-19T14:22:54;25.60;;;3.67;;
16665;SDS011;8446;50.998;6.250;2023-11-19T14:25:21;15.53;;;3.07;;
16665;SDS011;8446;50.998;6.250;2023-11-19T14:27:48;22.63;;;2.93;;
16665;SDS011;8446;50.998;6.250;2023-11-19T14:30:15;23.93;;;2.80;;
16665;SDS011;8446;50.998;6.250;2023-11-19T14:32:42;18.00;;;3.03;;
16665;SDS011;8446;50.998;6.250;2023-11-19T14:35:10;22.97;;;3.30;;
16665;SDS011;8446;50.998;6.250;2023-11-19T14:37:39;13.73;;;2.90;;
16665;SDS011;8446;50.998;6.250;2023-11-19T14:40:06;15.23;;;3.20;;
16665;SDS011;8446;50.998;6.250;2023-11-19T14:42:36;12.47;;;2.97;;
16665;SDS011;8446;50.998;6.250;2023-11-19T14:45:04;12.40;;;2.50;;
16665;SDS011;8446;50.998;6.250;2023-11-19T14:47:31;25.23;;;3.23;;
16665;SDS011;8446;50.998;6.250;2023-11-19T14:49:58;24.00;;;3.13;;
16665;SDS011;8446;50.998;6.250;2023-11-19T14:52:25;18.53;;;3.00;;
16665;SDS011;8446;50.998;6.250;2023-11-19T14:54:53;15.73;;;3.80;;
16665;SDS011;8446;50.998;6.250;2023-11-19T14:57:21;14.37;;;2.77;;
16665;SDS011;8446;50.998;6.250;2023-11-19T14:59:48;10.83;;;1.77;;
16665;SDS011;8446;50.998;6.250;2023-11-19T15:02:15;21.03;;;3.57;;